02 Jul 2020 17:01 UTC 2020184+17:01 UTC

Overview Datums Bench Marks Data Query Site Visit Daily QC Messages Attributes

130: GBRA Station #2

28° 24' 26" N   96° 42' 43" W
GBRA2
Guadalupe Blanco River Authority (GBRA) GBRA

Station Information

GBRA Station #2
GBRA Station #2
more pictures
 
Station Name:GBRA Station #2
DNR ID:130
Location:28° 24' 26" N, 96° 42' 43" W

Water Level Forecasts

Latest Observations

Series Metric English Marine Observed at
Water Temperature 29.8 °C 85.6 °F 85.6 °F Jul 02 11:42 CDT
00h13m ago
Salinity 10.700 psu 10.700 psu 10.700 psu Jul 02 11:42 CDT
00h13m ago

Maps

GBRA Station #2
All Stations in Area
Entire Network
 

Recent Observations

Date/Time Water
Temp (°F)
Sal (psu)
Jul 02 11:00 CDT 84.9 11.600
Jul 02 10:00 CDT 83.8 16.100
Jul 02 09:00 CDT 83.8 16.500
Jul 02 08:00 CDT 83.7 16.500
Jul 02 07:00 CDT 83.8 16.400
Jul 02 06:00 CDT 84.0 16.300
Jul 02 05:00 CDT 84.2 16.300
Jul 02 04:00 CDT 84.4 16.600
Jul 02 03:00 CDT 84.6 16.500
Jul 02 02:00 CDT 84.9 16.400
Jul 02 01:00 CDT 85.3 16.400
Jul 02 00:00 CDT 85.6 16.400
Jul 01 23:00 CDT 86.0 16.300
Jul 01 22:00 CDT 86.4 16.200
Jul 01 21:00 CDT 86.7 16.200
Jul 01 20:00 CDT 87.1 16.200
Jul 01 19:00 CDT 87.4 16.100
Jul 01 18:00 CDT 87.6 16.100
Jul 01 17:00 CDT 87.6 16.100
Jul 01 16:00 CDT 87.1 16.100
Jul 01 15:00 CDT 86.7 16.200
Jul 01 14:00 CDT 86.2 16.400
Jul 01 13:00 CDT 85.5 15.800
Jul 01 12:00 CDT 84.7 15.800
Jul 01 11:00 CDT 84.0 15.900

Historical Data Availability